Latest Weather Observations for Mortlake

IDV60801

Issued at 11:05 pm EDT Sunday 23 November 2014 (issued every 30 minutes, with the page automatically refreshed every 10 minutes)

About weather observations | Map of weather stations | Latest weather observations for VIC | Other Formats
Station Details ID: 090176 Name: MORTLAKE RACECOURSE Lat: -38.07 Lon: 142.77 Height: 130.0 m
Data from the previous 72 hours. | See also: Recent months at Mortlake
Date/Time
EDT
Temp
°C
App
Temp
°C
Dew
Point
Rel
Hum
%
Delta-T
°C
Wind Press
QNH
hPa
Press
MSL
hPa
Rain
since 9 am
mm
Dir
 
Spd
km/h
Gust
km/h
Spd
kts
Gust
kts
23/11:00pm 14.0 12.0 10.0 77 2.1 S 11 13 6 7 1013.2 1013.1 0.0
23/10:30pm 14.3 13.0 10.1 76 2.2 SSE 7 11 4 6 1013.2 1013.1 0.0
23/10:00pm 14.5 12.9 10.1 75 2.3 SE 9 11 5 6 1012.9 1012.8 0.0
23/09:30pm 14.9 12.6 10.5 75 2.3 SE 13 17 7 9 1012.6 1012.5 0.0
23/09:00pm 14.7 13.5 10.3 75 2.3 SSE 7 9 4 5 1013.1 1013.0 0.0
23/08:30pm 16.0 14.3 9.9 67 3.2 S 9 17 5 9 1013.0 1012.9 0.0
23/08:00pm 16.7 14.9 11.0 69 3.1 S 11 15 6 8 1012.8 1012.7 0.0
23/07:30pm 17.6 14.8 11.2 66 3.5 SSE 17 22 9 12 1011.5 1011.4 0.0
23/07:00pm 18.3 15.1 11.1 63 3.9 S 19 24 10 13 1011.5 1011.4 0.0
23/06:30pm 19.4 16.2 11.4 60 4.4 S 19 24 10 13 1011.5 1011.4 0.0
23/06:00pm 20.6 17.5 11.5 56 5.1 S 19 26 10 14 1012.0 1011.9 0.0
23/05:30pm 22.0 18.3 11.4 51 5.9 S 22 32 12 17 1012.0 1011.9 0.0
23/05:00pm 23.3 21.7 11.4 47 6.7 S 11 19 6 10 1011.7 1011.6 0.0
23/04:30pm 23.2 21.1 11.3 47 6.7 SSE 13 20 7 11 1011.5 1011.4 0.0
23/04:00pm 23.9 21.9 10.2 42 7.6 SW 11 20 6 11 1011.6 1011.5 0.0
23/03:30pm 24.6 22.2 8.5 36 8.7 WSW 11 19 6 10 1011.6 1011.5 0.0
23/03:00pm 24.0 21.5 8.4 37 8.4 WSW 11 20 6 11 1011.7 1011.6 0.0
23/02:30pm 24.0 21.5 8.4 37 8.4 SW 11 22 6 12 1011.8 1011.7 0.0
23/02:00pm 23.3 21.3 8.6 39 7.9 WSW 9 15 5 8 1011.8 1011.7 0.0
23/01:30pm 22.7 20.7 8.8 41 7.5 SSW 9 19 5 10 1011.7 1011.6 0.0
23/01:00pm 21.9 19.5 8.8 43 7.0 SSW 11 19 6 10 1011.7 1011.6 0.0
23/12:30pm 21.1 18.7 8.7 45 6.6 SW 11 20 6 11 1011.7 1011.6 0.0
23/12:00pm 20.9 19.8 9.8 49 6.0 S 6 20 3 11 1012.0 1011.9 0.0
23/11:30am 20.6 19.5 9.8 50 5.8 NW 6 9 3 5 1012.2 1012.1 0.0
23/11:00am 19.1 17.7 8.7 51 5.5 S 6 11 3 6 1012.6 1012.5 0.0
23/10:30am 18.3 17.0 9.9 58 4.5 SSW 7 11 4 6 1012.9 1012.8 0.0
23/10:00am 17.6 16.5 10.0 61 4.0 NNW 6 11 3 6 1013.3 1013.2 0.0
23/09:30am 16.1 15.1 10.4 69 3.0 NW 6 9 3 5 1013.4 1013.3 0.0
23/09:00am 15.6 15.2 12.5 82 1.7 WSW 6 9 3 5 1013.4 1013.3 0.0
23/08:30am 14.0 14.1 12.6 91 0.8 WNW 4 6 2 3 1013.2 1013.1 0.0
23/08:00am 13.0 12.7 12.8 99 0.1 WNW 6 7 3 4 1012.8 1012.7 0.0
23/07:30am 11.8 11.2 11.6 99 0.1 WNW 6 6 3 3 1012.4 1012.3 0.0
23/07:00am 10.8 10.3 10.6 99 0.1 WNW 4 4 2 2 1012.3 1012.2 0.0
23/06:30am 10.3 9.2 10.1 99 0.1 WNW 6 7 3 4 1012.0 1011.9 0.0
23/06:00am 8.9 7.5 8.8 99 0.0 WNW 6 7 3 4 1011.6 1011.5 0.0
23/05:30am 7.8 6.1 7.7 99 0.0 WNW 6 7 3 4 1011.2 1011.1 0.0
23/05:00am 8.0 6.4 7.9 99 0.0 WNW 6 6 3 3 1011.0 1010.9 0.0
23/04:30am 7.3 5.3 7.0 98 0.1 W 7 9 4 5 1011.0 1010.9 0.0
23/04:00am 10.9 10.0 10.7 99 0.1 W 6 7 3 4 1010.8 1010.7 0.0
23/03:30am 10.9 10.0 10.7 99 0.1 W 6 7 3 4 1010.6 1010.5 0.0
23/03:00am 8.8 7.7 8.4 97 0.2 W 4 4 2 2 1010.7 1010.6 0.0
23/02:30am 9.3 8.5 8.1 92 0.6 W 2 4 1 2 1010.9 1010.8 0.0
23/02:00am 12.5 12.0 11.9 96 0.3 WSW 6 7 3 4 1010.8 1010.7 0.0
23/01:30am 13.2 12.8 12.4 95 0.4 WSW 6 7 3 4 1011.0 1010.9 0.0
23/01:00am 13.4 13.0 12.5 94 0.5 W 6 7 3 4 1011.2 1011.1 0.0
23/12:30am 14.3 14.0 13.2 93 0.6 W 7 11 4 6 1010.9 1010.8 0.0
23/12:00am 15.0 14.8 13.7 92 0.7 W 7 13 4 7 1010.8 1010.7 0.0
 
Date/Time
EDT
Temp
°C
App
Temp
°C
Dew
Point
Rel
Hum
%
Delta-T
°C
Wind Press
QNH
hPa
Press
MSL
hPa
Rain
since 9 am
mm
Dir
 
Spd
km/h
Gust
km/h
Spd
kts
Gust
kts
22/11:30pm 15.2 15.0 13.6 90 0.9 WSW 7 11 4 6 1010.5 1010.4 0.0
22/11:00pm 15.4 14.5 13.6 89 1.0 SW 11 19 6 10 1010.3 1010.2 0.0
22/10:30pm 15.4 14.8 13.4 88 1.1 SW 9 13 5 7 1010.2 1010.1 0.0
22/10:00pm 15.1 14.7 13.1 88 1.1 WSW 7 9 4 5 1009.8 1009.7 0.0
22/09:30pm 15.4 14.3 13.1 86 1.3 SW 11 15 6 8 1009.6 1009.5 0.0
22/09:00pm 16.2 14.8 13.3 83 1.6 SSW 13 17 7 9 1009.1 1009.0 0.0
22/08:30pm 16.3 14.8 13.2 82 1.7 SSW 13 19 7 10 1008.6 1008.5 0.0
22/08:00pm 17.0 13.6 13.7 81 1.9 S 24 33 13 18 1007.9 1007.8 0.0
22/07:30pm 18.7 15.3 13.8 73 2.8 S 24 33 13 18 1007.0 1006.8 0.0
22/07:00pm 20.0 16.6 13.7 67 3.6 S 24 33 13 18 1006.1 1005.9 0.0
22/06:30pm 21.9 18.2 14.0 61 4.6 SSW 26 35 14 19 1005.6 1005.5 0.0
22/06:00pm 22.6 18.6 13.1 55 5.5 S 26 35 14 19 1004.9 1004.8 0.0
22/05:40pm 24.2 19.7 11.5 45 7.2 S 26 39 14 21 1004.2 1004.1 0.0
22/05:30pm 29.4 23.6 11.5 33 10.4 WNW 33 44 18 24 1003.9 1003.8 0.0
22/05:00pm 29.9 24.3 11.4 32 10.8 NW 32 50 17 27 1004.0 1003.9 0.0
22/04:34pm 30.1 24.5 11.6 32 10.8 NW 32 52 17 28 1003.9 1003.8 0.0
22/04:30pm 30.3 24.8 11.8 32 10.8 NW 32 44 17 24 1004.0 1003.9 0.0
22/04:00pm 30.5 23.6 11.5 31 11.1 NW 39 57 21 31 1004.0 1003.9 0.0
22/03:35pm 31.6 24.7 10.3 27 12.3 NW 37 56 20 30 1004.1 1004.0 0.0
22/03:30pm 32.4 25.7 11.0 27 12.5 NW 37 50 20 27 1004.3 1004.2 0.0
22/03:26pm 31.9 23.8 10.0 26 12.6 NW 43 50 23 27 1004.2 1004.1 0.0
22/03:00pm 31.2 24.8 9.4 26 12.4 N 33 52 18 28 1004.5 1004.4 0.0
22/02:30pm 30.3 23.6 8.1 25 12.3 NNW 33 54 18 29 1005.1 1005.0 0.0
22/02:25pm 31.4 25.1 9.0 25 12.6 NNW 32 52 17 28 1005.2 1005.1 0.0
22/02:08pm 30.4 23.1 8.7 26 12.1 NW 37 44 20 24 1005.5 1005.4 0.0
22/02:00pm 29.7 21.6 8.7 27 11.7 N 41 61 22 33 1005.9 1005.7 0.0
22/01:49pm 31.0 24.1 8.7 25 12.5 NNW 35 56 19 30 1005.9 1005.7 0.0
22/01:30pm 29.8 21.9 7.7 25 12.1 NNW 39 52 21 28 1006.2 1006.0 0.0
22/01:27pm 30.1 22.4 8.5 26 12.0 NNW 39 59 21 32 1006.3 1006.1 0.0
22/01:00pm 28.4 21.1 7.1 26 11.5 N 35 54 19 29 1006.5 1006.3 0.0
22/12:30pm 29.0 21.8 9.2 29 11.1 N 37 48 20 26 1006.9 1006.7 0.0
22/12:00pm 26.7 19.3 8.2 31 10.1 N 37 48 20 26 1007.4 1007.3 0.0
22/11:30am 24.6 19.1 9.3 38 8.4 N 28 39 15 21 1007.6 1007.5 0.0
22/11:00am 24.0 19.7 10.7 43 7.4 N 24 33 13 18 1008.2 1008.1 0.0
22/10:30am 19.7 18.4 10.1 54 5.2 NW 7 17 4 9 1008.3 1008.2 0.0
22/10:06am 19.4 13.5 9.0 51 5.5 N 30 43 16 23 1006.9 1006.7 0.0
22/10:00am 19.9 14.5 9.5 51 5.6 N 28 35 15 19 1009.2 1009.1 0.0
22/09:30am 19.3 15.7 10.6 57 4.7 NNE 20 26 11 14 1008.9 1008.8 0.0
22/09:00am 16.5 14.1 12.5 77 2.2 NNE 17 22 9 12 1008.8 1008.7 0.2
22/08:30am 15.3 12.2 12.1 81 1.8 NNE 20 26 11 14 1008.6 1008.5 0.2
22/08:00am 13.4 11.0 11.5 88 1.0 NNE 15 22 8 12 1009.0 1008.9 0.2
22/07:30am 11.5 10.1 11.0 97 0.3 NNE 9 11 5 6 1009.9 1009.8 0.2
22/07:00am 11.2 10.1 10.6 96 0.3 SSW 7 11 4 6 1010.9 1010.8 0.2
22/06:30am 11.0 11.1 10.2 95 0.4 CALM 0 0 0 0 1010.0 1009.9 0.2
22/06:00am 10.9 10.7 10.3 96 0.3 E 2 4 1 2 1010.0 1009.9 0.2
22/05:30am 10.3 8.9 9.7 96 0.3 ENE 7 11 4 6 1009.5 1009.4 0.2
22/05:00am 10.3 8.6 9.8 97 0.3 E 9 13 5 7 1009.6 1009.5 0.2
22/04:30am 10.5 10.1 9.7 95 0.4 S 2 7 1 4 1010.6 1010.5 0.2
22/04:00am 10.5 9.0 9.3 92 0.6 E 7 11 4 6 1009.4 1009.3 0.2
22/03:30am 10.5 9.1 9.4 93 0.6 NE 7 9 4 5 1009.3 1009.2 0.2
22/03:00am 10.4 8.9 9.2 92 0.6 N 7 9 4 5 1009.7 1009.6 0.2
22/02:30am 11.0 9.2 9.3 89 0.9 NNE 9 13 5 7 1009.8 1009.7 0.2
22/02:00am 11.6 8.6 9.3 86 1.2 NE 15 28 8 15 1010.0 1009.9 0.2
22/01:30am 11.5 10.3 9.6 88 1.0 ENE 6 9 3 5 1010.2 1010.1 0.2
22/01:00am 10.5 8.9 8.6 88 0.9 ENE 7 11 4 6 1010.8 1010.7 0.2
22/12:30am 10.6 9.1 8.4 86 1.1 E 6 9 3 5 1011.6 1011.5 0.2
22/12:00am 10.6 8.9 8.5 87 1.0 E 7 9 4 5 1012.1 1012.0 0.2
 
Date/Time
EDT
Temp
°C
App
Temp
°C
Dew
Point
Rel
Hum
%
Delta-T
°C
Wind Press
QNH
hPa
Press
MSL
hPa
Rain
since 9 am
mm
Dir
 
Spd
km/h
Gust
km/h
Spd
kts
Gust
kts
21/11:30pm 10.5 8.9 8.6 88 0.9 ESE 7 9 4 5 1012.3 1012.2 0.2
21/11:00pm 10.3 8.7 8.7 90 0.8 SE 7 7 4 4 1012.5 1012.4 0.2
21/10:30pm 10.5 9.5 8.8 89 0.8 SSE 4 6 2 3 1012.9 1012.8 0.2
21/10:00pm 10.2 8.4 8.1 87 1.0 SSE 7 9 4 5 1012.7 1012.6 0.2
21/09:30pm 12.0 10.6 9.4 84 1.3 S 7 9 4 5 1012.5 1012.4 0.2
21/09:00pm 13.0 10.4 9.4 79 1.8 SSW 13 19 7 10 1012.1 1012.0 0.2
21/08:30pm 14.7 12.3 10.1 74 2.4 S 13 17 7 9 1011.8 1011.7 0.2
21/08:00pm 16.6 14.3 10.5 67 3.3 S 13 19 7 10 1011.3 1011.2 0.2
21/07:30pm 19.1 16.6 10.9 59 4.5 S 15 19 8 10 1010.9 1010.8 0.2
21/07:00pm 19.9 16.8 10.3 54 5.2 S 17 22 9 12 1010.5 1010.4 0.2
21/06:30pm 20.8 17.8 10.6 52 5.6 S 17 20 9 11 1010.2 1010.1 0.2
21/06:00pm 22.0 18.3 9.5 45 6.8 S 19 24 10 13 1009.8 1009.7 0.2
21/05:30pm 23.9 19.7 7.5 35 8.6 WNW 19 26 10 14 1009.9 1009.8 0.2
21/05:00pm 23.5 21.1 7.2 35 8.5 N 9 15 5 8 1010.0 1009.9 0.2
21/04:30pm 23.7 21.1 7.8 36 8.4 W 11 20 6 11 1010.3 1010.2 0.2
21/04:00pm 22.0 18.8 8.5 42 7.2 SSW 15 20 8 11 1010.3 1010.2 0.2
21/03:30pm 21.4 19.8 8.7 44 6.7 SSW 7 17 4 9 1010.8 1010.7 0.2
21/03:00pm 20.9 19.0 8.9 46 6.4 S 9 13 5 7 1011.0 1010.9 0.2
21/02:30pm 21.1 19.3 9.4 47 6.3 SSW 9 20 5 11 1011.2 1011.1 0.2
21/02:00pm 19.3 17.1 8.0 48 5.9 SW 9 20 5 11 1011.5 1011.4 0.2
21/01:30pm 19.0 16.1 8.1 49 5.6 SW 13 22 7 12 1011.8 1011.7 0.2
21/01:00pm 18.2 14.5 7.9 51 5.3 SW 17 22 9 12 1012.0 1011.9 0.2
21/12:30pm 18.4 14.7 8.1 51 5.3 SW 17 30 9 16 1012.3 1012.2 0.2
21/12:00pm 17.2 12.8 7.3 52 5.0 SW 20 28 11 15 1012.3 1012.2 0.2
21/11:30am 17.3 13.5 7.6 53 4.9 WSW 17 26 9 14 1012.2 1012.1 0.2
21/11:00am 16.5 13.0 7.4 55 4.6 WSW 15 22 8 12 1012.2 1012.1 0.2
21/10:30am 16.2 12.7 8.7 61 3.9 WSW 17 20 9 11 1012.0 1011.9 0.0
21/10:00am 15.4 12.0 9.3 67 3.2 WSW 17 24 9 13 1012.1 1012.0 0.0
21/09:30am 14.8 11.6 9.8 72 2.6 WSW 17 28 9 15 1012.1 1012.0 0.0
21/09:00am 13.7 11.7 11.6 87 1.1 W 13 20 7 11 1011.9 1011.8 0.4
21/08:30am 12.2 9.9 10.6 90 0.8 W 13 20 7 11 1011.4 1011.3 0.4
21/08:00am 12.0 10.1 10.6 91 0.7 W 11 17 6 9 1010.8 1010.7 0.4
21/07:30am 12.1 10.0 11.2 94 0.5 W 13 20 7 11 1010.7 1010.6 0.4
21/07:00am 11.3 9.1 10.7 96 0.3 W 13 19 7 10 1010.7 1010.6 0.4
21/06:30am 11.2 8.9 10.6 96 0.3 W 13 19 7 10 1010.3 1010.2 0.4
21/06:00am 11.7 9.7 11.4 98 0.2 W 13 20 7 11 1009.6 1009.5 0.4
21/05:30am 12.1 11.0 11.8 98 0.2 W 9 15 5 8 1008.7 1008.6 0.4
21/05:00am 11.9 10.7 11.6 98 0.2 WSW 9 17 5 9 1008.5 1008.4 0.4
21/04:30am 12.0 10.1 11.8 99 0.1 WSW 13 17 7 9 1008.1 1008.0 0.4
21/04:00am 12.3 9.7 12.1 99 0.1 SW 17 24 9 13 1008.0 1007.9 0.4
21/03:30am 12.5 9.4 12.3 99 0.1 WSW 20 30 11 16 1007.9 1007.8 0.4
21/03:00am 13.1 10.2 12.9 99 0.1 WSW 20 32 11 17 1007.7 1007.6 0.4
21/02:30am 13.6 11.8 13.4 99 0.1 WSW 15 24 8 13 1007.5 1007.4 0.4
21/02:00am 14.0 12.7 13.8 99 0.1 W 13 20 7 11 1007.6 1007.5 0.4
21/01:30am 14.1 12.0 13.6 97 0.3 WSW 17 30 9 16 1007.5 1007.4 0.4
21/01:00am 14.4 12.6 13.4 94 0.6 W 15 20 8 11 1007.6 1007.5 0.4
21/12:30am 14.3 12.0 13.0 92 0.7 WSW 17 24 9 13 1007.6 1007.5 0.4
21/12:00am 14.6 11.9 13.0 90 0.9 WSW 19 28 10 15 1007.5 1007.4 0.4
 
Date/Time
EDT
Temp
°C
App
Temp
°C
Dew
Point
Rel
Hum
%
Delta-T
°C
Wind Press
QNH
hPa
Press
MSL
hPa
Rain
since 9 am
mm
Dir
 
Spd
km/h
Gust
km/h
Spd
kts
Gust
kts
20/11:30pm 15.6 13.3 14.1 91 0.9 WSW 19 28 10 15 1007.0 1006.8 0.4

Other Formats:

Comma delimited format used in spreadsheet applications
http://www.bom.gov.au/fwo/IDV60801/IDV60801.94840.axf

JavaScript Object Notation format (JSON) in row-major order
http://www.bom.gov.au/fwo/IDV60801/IDV60801.94840.json